Terminal Aerodrome Forecast
Issued by NWS

Home | Current Version | Previous Version | Text Only | Print | Product List | Glossary On
Versions: 1 2 3 4 5 6 7 8 9 10 11 12 13 14 15 16 17 18 19 20 21 22 23 24 25 26
000
FTUS41 KALY 280700 AAA
TAFPSF
TAF AMD
KPSF 280710Z 2807/2906 21012G18KT 6SM -SHRA OVC060
      TEMPO 2807/2809 5SM -SHRA BR OVC035
     FM280900 24008KT 5SM -SHRA BR OVC035
      TEMPO 2809/2813 3SM -SHRA BR OVC020
     FM281300 25006KT 5SM -SHRA BR OVC025
     FM281600 28009KT P6SM VCSH OVC030
     FM281800 28010G16KT P6SM OVC040
     FM282300 29008KT P6SM SCT045 OVC150=

USA.gov is the U.S. government's official web portal to all federal, state and local government web resources and services.